sensor_id;sensor_type;location;lat;lon;timestamp;P1;P2;P0
57049;PMS7003;42935;50.966;16.992;2023-02-17T00:01:51;67;50;30
57049;PMS7003;42935;50.966;16.992;2023-02-17T00:05:05;62;44;28
57049;PMS7003;42935;50.966;16.992;2023-02-17T00:08:22;69;48;29
57049;PMS7003;42935;50.966;16.992;2023-02-17T00:11:31;63;47;28
57049;PMS7003;42935;50.966;16.992;2023-02-17T00:14:42;60;42;27
57049;PMS7003;42935;50.966;16.992;2023-02-17T00:17:54;63;46;29
57049;PMS7003;42935;50.966;16.992;2023-02-17T00:21:15;62;46;29
57049;PMS7003;42935;50.966;16.992;2023-02-17T00:24:32;69;49;30
57049;PMS7003;42935;50.966;16.992;2023-02-17T00:27:46;68;47;29
57049;PMS7003;42935;50.966;16.992;2023-02-17T00:30:58;64;47;29
57049;PMS7003;42935;50.966;16.992;2023-02-17T00:34:11;60;45;29
57049;PMS7003;42935;50.966;16.992;2023-02-17T00:37:16;63;44;28
57049;PMS7003;42935;50.966;16.992;2023-02-17T00:40:34;60;46;28
57049;PMS7003;42935;50.966;16.992;2023-02-17T00:43:48;65;46;28
57049;PMS7003;42935;50.966;16.992;2023-02-17T00:47:07;62;46;29
57049;PMS7003;42935;50.966;16.992;2023-02-17T00:50:19;67;48;29
57049;PMS7003;42935;50.966;16.992;2023-02-17T00:53:36;65;47;28
57049;PMS7003;42935;50.966;16.992;2023-02-17T00:56:53;61;45;28
57049;PMS7003;42935;50.966;16.992;2023-02-17T01:00:12;63;45;27
57049;PMS7003;42935;50.966;16.992;2023-02-17T01:03:26;63;47;29
57049;PMS7003;42935;50.966;16.992;2023-02-17T01:06:35;66;46;30
57049;PMS7003;42935;50.966;16.992;2023-02-17T01:09:46;63;47;29
57049;PMS7003;42935;50.966;16.992;2023-02-17T01:12:59;64;49;30
57049;PMS7003;42935;50.966;16.992;2023-02-17T01:16:19;55;39;25
57049;PMS7003;42935;50.966;16.992;2023-02-17T01:19:27;64;48;29
57049;PMS7003;42935;50.966;16.992;2023-02-17T01:23:05;64;46;29
57049;PMS7003;42935;50.966;16.992;2023-02-17T01:26:15;67;50;31
57049;PMS7003;42935;50.966;16.992;2023-02-17T01:29:23;59;44;29
57049;PMS7003;42935;50.966;16.992;2023-02-17T01:32:41;68;50;31
57049;PMS7003;42935;50.966;16.992;2023-02-17T01:35:51;60;45;27
57049;PMS7003;42935;50.966;16.992;2023-02-17T01:39:05;64;47;28
57049;PMS7003;42935;50.966;16.992;2023-02-17T01:42:18;64;48;29
57049;PMS7003;42935;50.966;16.992;2023-02-17T01:45:31;53;41;26
57049;PMS7003;42935;50.966;16.992;2023-02-17T01:48:44;59;45;28
57049;PMS7003;42935;50.966;16.992;2023-02-17T01:52:07;61;42;28
57049;PMS7003;42935;50.966;16.992;2023-02-17T01:55:18;59;45;28
57049;PMS7003;42935;50.966;16.992;2023-02-17T01:58:32;59;45;27
57049;PMS7003;42935;50.966;16.992;2023-02-17T02:01:46;64;48;30
57049;PMS7003;42935;50.966;16.992;2023-02-17T02:04:54;62;46;28
57049;PMS7003;42935;50.966;16.992;2023-02-17T02:08:04;65;48;30
57049;PMS7003;42935;50.966;16.992;2023-02-17T02:11:18;64;49;30
57049;PMS7003;42935;50.966;16.992;2023-02-17T02:14:35;65;47;30
57049;PMS7003;42935;50.966;16.992;2023-02-17T02:24:50;64;49;29
57049;PMS7003;42935;50.966;16.992;2023-02-17T02:35:14;61;47;28
57049;PMS7003;42935;50.966;16.992;2023-02-17T02:41:57;67;48;30
57049;PMS7003;42935;50.966;16.992;2023-02-17T02:45:16;66;49;30
57049;PMS7003;42935;50.966;16.992;2023-02-17T02:48:25;65;47;30
57049;PMS7003;42935;50.966;16.992;2023-02-17T02:51:42;64;48;28
57049;PMS7003;42935;50.966;16.992;2023-02-17T02:58:28;66;49;31
57049;PMS7003;42935;50.966;16.992;2023-02-17T03:01:50;65;47;30
57049;PMS7003;42935;50.966;16.992;2023-02-17T03:05:15;64;49;30
57049;PMS7003;42935;50.966;16.992;2023-02-17T03:08:40;60;47;29
57049;PMS7003;42935;50.966;16.992;2023-02-17T03:12:02;65;49;31
57049;PMS7003;42935;50.966;16.992;2023-02-17T03:15:13;60;46;29
57049;PMS7003;42935;50.966;16.992;2023-02-17T03:18:30;65;49;30
57049;PMS7003;42935;50.966;16.992;2023-02-17T03:21:49;64;48;29
57049;PMS7003;42935;50.966;16.992;2023-02-17T03:25:06;60;45;29
57049;PMS7003;42935;50.966;16.992;2023-02-17T03:28:23;66;47;28
57049;PMS7003;42935;50.966;16.992;2023-02-17T03:31:34;66;48;30
57049;PMS7003;42935;50.966;16.992;2023-02-17T03:34:48;68;47;29
57049;PMS7003;42935;50.966;16.992;2023-02-17T03:38:05;65;47;29
57049;PMS7003;42935;50.966;16.992;2023-02-17T03:41:20;63;47;30
57049;PMS7003;42935;50.966;16.992;2023-02-17T03:44:28;63;47;28
57049;PMS7003;42935;50.966;16.992;2023-02-17T03:47:43;67;49;30
57049;PMS7003;42935;50.966;16.992;2023-02-17T03:50:56;63;48;30
57049;PMS7003;42935;50.966;16.992;2023-02-17T03:54:09;64;47;29
57049;PMS7003;42935;50.966;16.992;2023-02-17T03:57:28;66;49;30
57049;PMS7003;42935;50.966;16.992;2023-02-17T04:00:42;63;48;29
57049;PMS7003;42935;50.966;16.992;2023-02-17T04:03:56;62;47;29
57049;PMS7003;42935;50.966;16.992;2023-02-17T04:07:13;67;48;29
57049;PMS7003;42935;50.966;16.992;2023-02-17T04:10:26;61;47;29
57049;PMS7003;42935;50.966;16.992;2023-02-17T04:13:33;61;46;30
57049;PMS7003;42935;50.966;16.992;2023-02-17T04:16:49;61;46;28
57049;PMS7003;42935;50.966;16.992;2023-02-17T04:19:58;65;49;31
57049;PMS7003;42935;50.966;16.992;2023-02-17T04:23:08;66;47;29
57049;PMS7003;42935;50.966;16.992;2023-02-17T04:26:21;62;46;26
57049;PMS7003;42935;50.966;16.992;2023-02-17T04:29:32;63;45;30
57049;PMS7003;42935;50.966;16.992;2023-02-17T04:32:41;64;47;30
57049;PMS7003;42935;50.966;16.992;2023-02-17T04:35:50;61;46;29
57049;PMS7003;42935;50.966;16.992;2023-02-17T04:39:12;63;48;30
57049;PMS7003;42935;50.966;16.992;2023-02-17T04:42:26;62;47;30
57049;PMS7003;42935;50.966;16.992;2023-02-17T04:45:48;66;49;29
57049;PMS7003;42935;50.966;16.992;2023-02-17T04:48:59;58;43;28
57049;PMS7003;42935;50.966;16.992;2023-02-17T04:52:16;64;46;29
57049;PMS7003;42935;50.966;16.992;2023-02-17T04:55:30;61;45;27
57049;PMS7003;42935;50.966;16.992;2023-02-17T04:58:38;66;48;29
57049;PMS7003;42935;50.966;16.992;2023-02-17T05:01:45;60;43;28
57049;PMS7003;42935;50.966;16.992;2023-02-17T05:04:58;63;47;29
57049;PMS7003;42935;50.966;16.992;2023-02-17T05:08:08;61;46;27
57049;PMS7003;42935;50.966;16.992;2023-02-17T05:11:25;63;48;30
57049;PMS7003;42935;50.966;16.992;2023-02-17T05:14:34;63;46;29
57049;PMS7003;42935;50.966;16.992;2023-02-17T05:17:47;66;47;30
57049;PMS7003;42935;50.966;16.992;2023-02-17T05:21:00;63;47;29
57049;PMS7003;42935;50.966;16.992;2023-02-17T05:24:18;65;47;29
57049;PMS7003;42935;50.966;16.992;2023-02-17T05:27:26;60;47;29
57049;PMS7003;42935;50.966;16.992;2023-02-17T05:30:33;67;49;30
57049;PMS7003;42935;50.966;16.992;2023-02-17T05:33:46;60;45;28
57049;PMS7003;42935;50.966;16.992;2023-02-17T05:36:53;66;47;30
57049;PMS7003;42935;50.966;16.992;2023-02-17T05:40:07;69;49;31
57049;PMS7003;42935;50.966;16.992;2023-02-17T05:43:20;73;50;31
57049;PMS7003;42935;50.966;16.992;2023-02-17T05:46:37;68;51;32
57049;PMS7003;42935;50.966;16.992;2023-02-17T05:49:49;73;51;29
57049;PMS7003;42935;50.966;16.992;2023-02-17T05:53:04;67;49;30
57049;PMS7003;42935;50.966;16.992;2023-02-17T05:56:18;67;48;30
57049;PMS7003;42935;50.966;16.992;2023-02-17T05:59:36;66;50;31
57049;PMS7003;42935;50.966;16.992;2023-02-17T06:02:48;64;48;29
57049;PMS7003;42935;50.966;16.992;2023-02-17T06:06:02;59;46;29
57049;PMS7003;42935;50.966;16.992;2023-02-17T06:09:11;63;47;29
57049;PMS7003;42935;50.966;16.992;2023-02-17T06:12:25;61;46;28
57049;PMS7003;42935;50.966;16.992;2023-02-17T06:15:33;60;44;29
57049;PMS7003;42935;50.966;16.992;2023-02-17T06:18:51;63;47;29
57049;PMS7003;42935;50.966;16.992;2023-02-17T06:22:08;59;45;28
57049;PMS7003;42935;50.966;16.992;2023-02-17T06:25:21;66;49;30
57049;PMS7003;42935;50.966;16.992;2023-02-17T06:28:38;69;49;30
57049;PMS7003;42935;50.966;16.992;2023-02-17T06:31:49;67;49;30
57049;PMS7003;42935;50.966;16.992;2023-02-17T06:35:07;65;49;31
57049;PMS7003;42935;50.966;16.992;2023-02-17T06:38:17;64;49;30
57049;PMS7003;42935;50.966;16.992;2023-02-17T06:41:23;66;50;31
57049;PMS7003;42935;50.966;16.992;2023-02-17T06:44:36;66;49;30
57049;PMS7003;42935;50.966;16.992;2023-02-17T06:47:47;65;48;29
57049;PMS7003;42935;50.966;16.992;2023-02-17T06:51:00;65;49;31
57049;PMS7003;42935;50.966;16.992;2023-02-17T06:54:13;59;47;29
57049;PMS7003;42935;50.966;16.992;2023-02-17T06:57:23;67;48;30
57049;PMS7003;42935;50.966;16.992;2023-02-17T07:00:33;68;49;30
57049;PMS7003;42935;50.966;16.992;2023-02-17T07:03:47;65;48;31
57049;PMS7003;42935;50.966;16.992;2023-02-17T07:06:59;70;50;31
57049;PMS7003;42935;50.966;16.992;2023-02-17T07:10:07;62;47;30
57049;PMS7003;42935;50.966;16.992;2023-02-17T07:13:19;68;50;31
57049;PMS7003;42935;50.966;16.992;2023-02-17T07:16:28;65;47;31
57049;PMS7003;42935;50.966;16.992;2023-02-17T07:19:37;68;50;31
57049;PMS7003;42935;50.966;16.992;2023-02-17T07:22:44;65;47;30
57049;PMS7003;42935;50.966;16.992;2023-02-17T07:25:52;62;47;30
57049;PMS7003;42935;50.966;16.992;2023-02-17T07:29:06;69;49;30
57049;PMS7003;42935;50.966;16.992;2023-02-17T07:32:24;68;50;30
57049;PMS7003;42935;50.966;16.992;2023-02-17T07:35:41;60;47;30
57049;PMS7003;42935;50.966;16.992;2023-02-17T07:38:54;68;49;29
57049;PMS7003;42935;50.966;16.992;2023-02-17T07:42:11;65;50;30
57049;PMS7003;42935;50.966;16.992;2023-02-17T07:45:21;71;52;31
57049;PMS7003;42935;50.966;16.992;2023-02-17T07:48:35;74;53;33
57049;PMS7003;42935;50.966;16.992;2023-02-17T07:51:49;77;55;34
57049;PMS7003;42935;50.966;16.992;2023-02-17T07:55:08;68;50;31
57049;PMS7003;42935;50.966;16.992;2023-02-17T07:58:25;67;49;31
57049;PMS7003;42935;50.966;16.992;2023-02-17T08:01:31;63;50;30
57049;PMS7003;42935;50.966;16.992;2023-02-17T08:04:42;61;45;29
57049;PMS7003;42935;50.966;16.992;2023-02-17T08:07:53;68;49;31
57049;PMS7003;42935;50.966;16.992;2023-02-17T08:11:21;65;49;30
57049;PMS7003;42935;50.966;16.992;2023-02-17T08:14:48;66;47;30
57049;PMS7003;42935;50.966;16.992;2023-02-17T08:18:04;62;48;29
57049;PMS7003;42935;50.966;16.992;2023-02-17T08:21:16;61;47;29
57049;PMS7003;42935;50.966;16.992;2023-02-17T08:24:36;67;49;31
57049;PMS7003;42935;50.966;16.992;2023-02-17T08:27:54;61;46;28
57049;PMS7003;42935;50.966;16.992;2023-02-17T08:34:32;64;48;30
57049;PMS7003;42935;50.966;16.992;2023-02-17T08:37:50;61;47;29
57049;PMS7003;42935;50.966;16.992;2023-02-17T08:41:10;61;47;29
57049;PMS7003;42935;50.966;16.992;2023-02-17T08:44:23;64;47;29
57049;PMS7003;42935;50.966;16.992;2023-02-17T08:47:36;62;48;30
57049;PMS7003;42935;50.966;16.992;2023-02-17T08:50:47;67;49;29
57049;PMS7003;42935;50.966;16.992;2023-02-17T08:54:06;57;45;29
57049;PMS7003;42935;50.966;16.992;2023-02-17T08:57:25;61;46;29
57049;PMS7003;42935;50.966;16.992;2023-02-17T09:00:34;57;43;28
57049;PMS7003;42935;50.966;16.992;2023-02-17T09:03:44;50;38;25
57049;PMS7003;42935;50.966;16.992;2023-02-17T09:07:01;59;46;28
57049;PMS7003;42935;50.966;16.992;2023-02-17T09:10:11;58;44;28
57049;PMS7003;42935;50.966;16.992;2023-02-17T09:13:25;53;43;28
57049;PMS7003;42935;50.966;16.992;2023-02-17T09:16:32;52;43;28
57049;PMS7003;42935;50.966;16.992;2023-02-17T09:19:49;60;44;27
57049;PMS7003;42935;50.966;16.992;2023-02-17T09:23:02;62;44;26
57049;PMS7003;42935;50.966;16.992;2023-02-17T09:26:15;59;43;27
57049;PMS7003;42935;50.966;16.992;2023-02-17T09:29:29;60;44;27
57049;PMS7003;42935;50.966;16.992;2023-02-17T09:32:39;52;40;27
57049;PMS7003;42935;50.966;16.992;2023-02-17T09:35:57;57;43;26
57049;PMS7003;42935;50.966;16.992;2023-02-17T09:39:11;52;41;26
57049;PMS7003;42935;50.966;16.992;2023-02-17T09:42:29;51;40;25
57049;PMS7003;42935;50.966;16.992;2023-02-17T09:45:43;48;39;25
57049;PMS7003;42935;50.966;16.992;2023-02-17T09:49:08;55;42;26
57049;PMS7003;42935;50.966;16.992;2023-02-17T09:52:34;55;40;25
57049;PMS7003;42935;50.966;16.992;2023-02-17T09:56:07;52;39;25
57049;PMS7003;42935;50.966;16.992;2023-02-17T10:02:48;49;36;24
57049;PMS7003;42935;50.966;16.992;2023-02-17T10:09:32;50;40;25
57049;PMS7003;42935;50.966;16.992;2023-02-17T10:12:56;46;36;23
57049;PMS7003;42935;50.966;16.992;2023-02-17T10:16:14;44;36;23
57049;PMS7003;42935;50.966;16.992;2023-02-17T10:19:35;46;36;23
57049;PMS7003;42935;50.966;16.992;2023-02-17T10:23:00;47;36;23
57049;PMS7003;42935;50.966;16.992;2023-02-17T10:29:42;42;35;23
57049;PMS7003;42935;50.966;16.992;2023-02-17T10:32:59;46;34;23
57049;PMS7003;42935;50.966;16.992;2023-02-17T10:39:44;49;37;22
57049;PMS7003;42935;50.966;16.992;2023-02-17T10:43:03;43;36;23
57049;PMS7003;42935;50.966;16.992;2023-02-17T10:46:16;49;37;23
57049;PMS7003;42935;50.966;16.992;2023-02-17T10:49:30;41;32;22
57049;PMS7003;42935;50.966;16.992;2023-02-17T10:52:49;43;33;22
57049;PMS7003;42935;50.966;16.992;2023-02-17T10:59:31;41;32;21
57049;PMS7003;42935;50.966;16.992;2023-02-17T11:02:53;39;33;20
57049;PMS7003;42935;50.966;16.992;2023-02-17T11:06:02;36;31;21
57049;PMS7003;42935;50.966;16.992;2023-02-17T11:12:42;36;32;21
57049;PMS7003;42935;50.966;16.992;2023-02-17T11:15:51;38;32;21
57049;PMS7003;42935;50.966;16.992;2023-02-17T11:19:06;39;33;22
57049;PMS7003;42935;50.966;16.992;2023-02-17T11:25:54;25;23;16
57049;PMS7003;42935;50.966;16.992;2023-02-17T11:29:07;27;23;15
57049;PMS7003;42935;50.966;16.992;2023-02-17T11:32:14;25;21;15
57049;PMS7003;42935;50.966;16.992;2023-02-17T11:38:50;22;20;14
57049;PMS7003;42935;50.966;16.992;2023-02-17T11:42:00;22;19;14
57049;PMS7003;42935;50.966;16.992;2023-02-17T11:45:17;25;20;14
57049;PMS7003;42935;50.966;16.992;2023-02-17T11:55:10;25;20;14
57049;PMS7003;42935;50.966;16.992;2023-02-17T12:11:56;26;22;15
57049;PMS7003;42935;50.966;16.992;2023-02-17T12:28:34;25;24;17
57049;PMS7003;42935;50.966;16.992;2023-02-17T12:38:37;26;23;16
57049;PMS7003;42935;50.966;16.992;2023-02-17T12:45:19;30;25;16
57049;PMS7003;42935;50.966;16.992;2023-02-17T12:48:40;36;31;18
57049;PMS7003;42935;50.966;16.992;2023-02-17T12:52:09;30;24;16
57049;PMS7003;42935;50.966;16.992;2023-02-17T12:55:24;35;30;21
57049;PMS7003;42935;50.966;16.992;2023-02-17T12:58:47;38;32;19
57049;PMS7003;42935;50.966;16.992;2023-02-17T13:02:11;37;31;20
57049;PMS7003;42935;50.966;16.992;2023-02-17T13:08:53;45;36;21
57049;PMS7003;42935;50.966;16.992;2023-02-17T13:18:43;35;32;21
57049;PMS7003;42935;50.966;16.992;2023-02-17T13:21:55;37;32;21
57049;PMS7003;42935;50.966;16.992;2023-02-17T13:28:40;44;35;21
57049;PMS7003;42935;50.966;16.992;2023-02-17T13:38:33;38;33;21
57049;PMS7003;42935;50.966;16.992;2023-02-17T13:41:44;35;32;22
57049;PMS7003;42935;50.966;16.992;2023-02-17T13:44:55;39;31;20
57049;PMS7003;42935;50.966;16.992;2023-02-17T13:51:32;33;28;20
57049;PMS7003;42935;50.966;16.992;2023-02-17T13:54:50;31;27;18
57049;PMS7003;42935;50.966;16.992;2023-02-17T13:58:09;34;29;18
57049;PMS7003;42935;50.966;16.992;2023-02-17T14:01:24;35;31;19
57049;PMS7003;42935;50.966;16.992;2023-02-17T14:04:46;36;31;19
57049;PMS7003;42935;50.966;16.992;2023-02-17T14:07:58;30;26;20
57049;PMS7003;42935;50.966;16.992;2023-02-17T14:11:14;27;25;16
57049;PMS7003;42935;50.966;16.992;2023-02-17T14:14:35;36;27;19
57049;PMS7003;42935;50.966;16.992;2023-02-17T14:17:46;38;28;21
57049;PMS7003;42935;50.966;16.992;2023-02-17T14:24:20;31;27;19
57049;PMS7003;42935;50.966;16.992;2023-02-17T14:27:25;30;26;18
57049;PMS7003;42935;50.966;16.992;2023-02-17T14:30:33;27;23;16
57049;PMS7003;42935;50.966;16.992;2023-02-17T14:37:17;38;31;20
57049;PMS7003;42935;50.966;16.992;2023-02-17T14:40:30;37;30;21
57049;PMS7003;42935;50.966;16.992;2023-02-17T14:43:43;39;32;21
57049;PMS7003;42935;50.966;16.992;2023-02-17T14:46:57;35;27;19
57049;PMS7003;42935;50.966;16.992;2023-02-17T14:50:09;32;28;19
57049;PMS7003;42935;50.966;16.992;2023-02-17T14:53:24;29;28;19
57049;PMS7003;42935;50.966;16.992;2023-02-17T14:56:43;31;25;18
57049;PMS7003;42935;50.966;16.992;2023-02-17T15:00:00;29;26;18
57049;PMS7003;42935;50.966;16.992;2023-02-17T15:03:08;25;21;14
57049;PMS7003;42935;50.966;16.992;2023-02-17T15:06:26;31;26;15
57049;PMS7003;42935;50.966;16.992;2023-02-17T15:09:40;22;19;13
57049;PMS7003;42935;50.966;16.992;2023-02-17T15:12:53;25;20;14
57049;PMS7003;42935;50.966;16.992;2023-02-17T15:16:03;22;19;13
57049;PMS7003;42935;50.966;16.992;2023-02-17T15:19:12;21;19;14
57049;PMS7003;42935;50.966;16.992;2023-02-17T15:22:29;29;20;14
57049;PMS7003;42935;50.966;16.992;2023-02-17T15:25:43;22;20;12
57049;PMS7003;42935;50.966;16.992;2023-02-17T15:28:56;24;20;15
57049;PMS7003;42935;50.966;16.992;2023-02-17T15:35:29;19;16;12
57049;PMS7003;42935;50.966;16.992;2023-02-17T15:38:36;19;16;12
57049;PMS7003;42935;50.966;16.992;2023-02-17T15:41:41;17;14;10
57049;PMS7003;42935;50.966;16.992;2023-02-17T15:44:51;23;16;12
57049;PMS7003;42935;50.966;16.992;2023-02-17T15:48:01;23;18;13
57049;PMS7003;42935;50.966;16.992;2023-02-17T15:51:16;20;17;12
57049;PMS7003;42935;50.966;16.992;2023-02-17T15:54:26;24;19;12
57049;PMS7003;42935;50.966;16.992;2023-02-17T15:57:36;16;14;12
57049;PMS7003;42935;50.966;16.992;2023-02-17T16:00:47;22;16;11
57049;PMS7003;42935;50.966;16.992;2023-02-17T16:03:59;17;14;10
57049;PMS7003;42935;50.966;16.992;2023-02-17T16:07:06;16;14;10
57049;PMS7003;42935;50.966;16.992;2023-02-17T16:10:15;18;15;10
57049;PMS7003;42935;50.966;16.992;2023-02-17T16:13:27;21;16;12
57049;PMS7003;42935;50.966;16.992;2023-02-17T16:16:38;16;13;10
57049;PMS7003;42935;50.966;16.992;2023-02-17T16:19:47;17;15;11
57049;PMS7003;42935;50.966;16.992;2023-02-17T16:22:57;13;12;9
57049;PMS7003;42935;50.966;16.992;2023-02-17T16:26:12;15;14;10
57049;PMS7003;42935;50.966;16.992;2023-02-17T16:29:28;15;14;11
57049;PMS7003;42935;50.966;16.992;2023-02-17T16:32:34;14;14;10
57049;PMS7003;42935;50.966;16.992;2023-02-17T16:35:45;17;14;10
57049;PMS7003;42935;50.966;16.992;2023-02-17T16:38:57;18;15;11
57049;PMS7003;42935;50.966;16.992;2023-02-17T16:42:11;23;21;14
57049;PMS7003;42935;50.966;16.992;2023-02-17T16:45:20;23;20;13
57049;PMS7003;42935;50.966;16.992;2023-02-17T16:48:35;27;21;15
57049;PMS7003;42935;50.966;16.992;2023-02-17T16:51:45;23;20;14
57049;PMS7003;42935;50.966;16.992;2023-02-17T16:54:55;30;25;16
57049;PMS7003;42935;50.966;16.992;2023-02-17T16:58:05;23;21;15
57049;PMS7003;42935;50.966;16.992;2023-02-17T17:01:24;22;20;15
57049;PMS7003;42935;50.966;16.992;2023-02-17T17:04:39;22;18;13
57049;PMS7003;42935;50.966;16.992;2023-02-17T17:07:56;29;24;16
57049;PMS7003;42935;50.966;16.992;2023-02-17T17:11:02;28;21;15
57049;PMS7003;42935;50.966;16.992;2023-02-17T17:14:15;27;24;16
57049;PMS7003;42935;50.966;16.992;2023-02-17T17:17:30;29;26;17
57049;PMS7003;42935;50.966;16.992;2023-02-17T17:20:44;26;21;15
57049;PMS7003;42935;50.966;16.992;2023-02-17T17:23:55;34;30;22
57049;PMS7003;42935;50.966;16.992;2023-02-17T17:27:10;30;27;17
57049;PMS7003;42935;50.966;16.992;2023-02-17T17:30:25;30;26;19
57049;PMS7003;42935;50.966;16.992;2023-02-17T17:33:35;25;22;16
57049;PMS7003;42935;50.966;16.992;2023-02-17T17:36:43;23;18;14
57049;PMS7003;42935;50.966;16.992;2023-02-17T17:39:54;28;25;17
57049;PMS7003;42935;50.966;16.992;2023-02-17T17:43:05;29;25;16
57049;PMS7003;42935;50.966;16.992;2023-02-17T17:49:34;25;22;13
57049;PMS7003;42935;50.966;16.992;2023-02-17T17:52:48;25;22;17
57049;PMS7003;42935;50.966;16.992;2023-02-17T17:56:04;24;21;14
57049;PMS7003;42935;50.966;16.992;2023-02-17T17:59:14;24;23;17
57049;PMS7003;42935;50.966;16.992;2023-02-17T18:02:24;26;20;15
57049;PMS7003;42935;50.966;16.992;2023-02-17T18:05:31;28;22;15
57049;PMS7003;42935;50.966;16.992;2023-02-17T18:08:36;21;19;14
57049;PMS7003;42935;50.966;16.992;2023-02-17T18:11:49;20;17;13
57049;PMS7003;42935;50.966;16.992;2023-02-17T18:15:02;20;17;12
57049;PMS7003;42935;50.966;16.992;2023-02-17T18:18:18;27;23;15
57049;PMS7003;42935;50.966;16.992;2023-02-17T18:21:28;22;18;13
57049;PMS7003;42935;50.966;16.992;2023-02-17T18:24:33;24;18;14
57049;PMS7003;42935;50.966;16.992;2023-02-17T18:27:42;21;16;12
57049;PMS7003;42935;50.966;16.992;2023-02-17T18:30:52;19;18;13
57049;PMS7003;42935;50.966;16.992;2023-02-17T18:34:01;16;16;11
57049;PMS7003;42935;50.966;16.992;2023-02-17T18:37:11;17;15;10
57049;PMS7003;42935;50.966;16.992;2023-02-17T18:40:19;21;16;11
57049;PMS7003;42935;50.966;16.992;2023-02-17T18:43:32;22;17;13
57049;PMS7003;42935;50.966;16.992;2023-02-17T18:46:46;21;18;12
57049;PMS7003;42935;50.966;16.992;2023-02-17T18:49:53;23;18;12
57049;PMS7003;42935;50.966;16.992;2023-02-17T18:53:06;23;19;12
57049;PMS7003;42935;50.966;16.992;2023-02-17T18:56:18;19;16;11
57049;PMS7003;42935;50.966;16.992;2023-02-17T18:59:30;18;16;12
57049;PMS7003;42935;50.966;16.992;2023-02-17T19:02:38;18;16;11
57049;PMS7003;42935;50.966;16.992;2023-02-17T19:05:48;17;14;9
57049;PMS7003;42935;50.966;16.992;2023-02-17T19:09:01;17;14;10
57049;PMS7003;42935;50.966;16.992;2023-02-17T19:12:09;13;11;9
57049;PMS7003;42935;50.966;16.992;2023-02-17T19:15:19;18;15;10
57049;PMS7003;42935;50.966;16.992;2023-02-17T19:18:28;15;13;10
57049;PMS7003;42935;50.966;16.992;2023-02-17T19:21:38;13;12;10
57049;PMS7003;42935;50.966;16.992;2023-02-17T19:24:52;16;14;9
57049;PMS7003;42935;50.966;16.992;2023-02-17T19:28:02;15;14;10
57049;PMS7003;42935;50.966;16.992;2023-02-17T19:31:14;14;11;7
57049;PMS7003;42935;50.966;16.992;2023-02-17T19:34:25;16;12;9
57049;PMS7003;42935;50.966;16.992;2023-02-17T19:37:39;11;11;9
57049;PMS7003;42935;50.966;16.992;2023-02-17T19:40:48;10;9;8
57049;PMS7003;42935;50.966;16.992;2023-02-17T19:43:54;13;11;9
57049;PMS7003;42935;50.966;16.992;2023-02-17T19:46:59;10;8;6
57049;PMS7003;42935;50.966;16.992;2023-02-17T19:50:04;10;9;7
57049;PMS7003;42935;50.966;16.992;2023-02-17T19:53:14;9;9;7
57049;PMS7003;42935;50.966;16.992;2023-02-17T19:56:22;14;13;9
57049;PMS7003;42935;50.966;16.992;2023-02-17T19:59:33;12;9;7
57049;PMS7003;42935;50.966;16.992;2023-02-17T20:02:42;7;4;4
57049;PMS7003;42935;50.966;16.992;2023-02-17T20:05:49;9;8;7
57049;PMS7003;42935;50.966;16.992;2023-02-17T20:08:58;14;11;9
57049;PMS7003;42935;50.966;16.992;2023-02-17T20:12:11;12;11;7
57049;PMS7003;42935;50.966;16.992;2023-02-17T20:15:16;13;13;9
57049;PMS7003;42935;50.966;16.992;2023-02-17T20:18:25;12;10;8
57049;PMS7003;42935;50.966;16.992;2023-02-17T20:21:35;15;12;7
57049;PMS7003;42935;50.966;16.992;2023-02-17T20:24:48;10;8;7
57049;PMS7003;42935;50.966;16.992;2023-02-17T20:27:57;5;5;4
57049;PMS7003;42935;50.966;16.992;2023-02-17T20:31:04;8;8;6
57049;PMS7003;42935;50.966;16.992;2023-02-17T20:37:36;8;7;5
57049;PMS7003;42935;50.966;16.992;2023-02-17T20:40:41;5;5;4
57049;PMS7003;42935;50.966;16.992;2023-02-17T20:43:51;8;7;6
57049;PMS7003;42935;50.966;16.992;2023-02-17T20:46:58;8;6;5
57049;PMS7003;42935;50.966;16.992;2023-02-17T20:50:06;7;5;3
57049;PMS7003;42935;50.966;16.992;2023-02-17T20:53:13;5;4;3
57049;PMS7003;42935;50.966;16.992;2023-02-17T20:56:21;5;5;4
57049;PMS7003;42935;50.966;16.992;2023-02-17T20:59:29;5;4;3
57049;PMS7003;42935;50.966;16.992;2023-02-17T21:02:39;6;5;3
57049;PMS7003;42935;50.966;16.992;2023-02-17T21:05:47;5;3;2
57049;PMS7003;42935;50.966;16.992;2023-02-17T21:08:59;7;4;3
57049;PMS7003;42935;50.966;16.992;2023-02-17T21:12:12;4;4;3
57049;PMS7003;42935;50.966;16.992;2023-02-17T21:15:21;4;3;3
57049;PMS7003;42935;50.966;16.992;2023-02-17T21:18:28;6;3;2
57049;PMS7003;42935;50.966;16.992;2023-02-17T21:21:38;4;2;2
57049;PMS7003;42935;50.966;16.992;2023-02-17T21:24:45;9;3;2
57049;PMS7003;42935;50.966;16.992;2023-02-17T21:27:50;6;4;3
57049;PMS7003;42935;50.966;16.992;2023-02-17T21:30:59;3;3;2
57049;PMS7003;42935;50.966;16.992;2023-02-17T21:34:06;5;3;3
57049;PMS7003;42935;50.966;16.992;2023-02-17T21:37:13;2;2;1
57049;PMS7003;42935;50.966;16.992;2023-02-17T21:40:20;3;2;1
57049;PMS7003;42935;50.966;16.992;2023-02-17T21:43:32;2;2;1
57049;PMS7003;42935;50.966;16.992;2023-02-17T21:46:48;2;1;1
57049;PMS7003;42935;50.966;16.992;2023-02-17T21:49:57;3;2;1
57049;PMS7003;42935;50.966;16.992;2023-02-17T21:53:03;2;2;2
57049;PMS7003;42935;50.966;16.992;2023-02-17T21:56:12;4;3;2
57049;PMS7003;42935;50.966;16.992;2023-02-17T21:59:19;4;4;3
57049;PMS7003;42935;50.966;16.992;2023-02-17T22:02:26;3;2;2
57049;PMS7003;42935;50.966;16.992;2023-02-17T22:05:35;4;4;3
57049;PMS7003;42935;50.966;16.992;2023-02-17T22:08:49;4;4;3
57049;PMS7003;42935;50.966;16.992;2023-02-17T22:11:56;9;4;4
57049;PMS7003;42935;50.966;16.992;2023-02-17T22:15:03;7;6;4
57049;PMS7003;42935;50.966;16.992;2023-02-17T22:18:13;9;7;5
57049;PMS7003;42935;50.966;16.992;2023-02-17T22:21:23;6;5;4
57049;PMS7003;42935;50.966;16.992;2023-02-17T22:24:33;6;5;4
57049;PMS7003;42935;50.966;16.992;2023-02-17T22:27:42;8;7;4
57049;PMS7003;42935;50.966;16.992;2023-02-17T22:30:50;6;5;4
57049;PMS7003;42935;50.966;16.992;2023-02-17T22:33:58;8;6;5
57049;PMS7003;42935;50.966;16.992;2023-02-17T22:37:09;5;4;3
57049;PMS7003;42935;50.966;16.992;2023-02-17T22:40:19;9;6;4
57049;PMS7003;42935;50.966;16.992;2023-02-17T22:43:28;8;6;4